Delta Virtual Airport Information Service

Munster Osnabruck International -?Airport

ICAO: EDDG Country: Germany
Latitude: 52.1346 Longitude: 7.68483
Latest Arrival : DAC6996 (EGPH-EDDG) Latest Departure : DAC6996 (EDDG-EDDF)


WX CaptureLIVE
Data provided by noaa.gov | Fetched at 04:04:46

METAR : EDDG 030950Z 20010KT 160V240 9999 SCT008 SCT013 03/01 Q1008 NOSIG

TAF : EDDG 030500Z 0306/0406 21006KT 4000 BR BKN003 BECMG 0307/0310 20011KT 9999 BKN010 BECMG 0310/0312 SCT020 PROB30 TEMPO 0312/0318 20015G25KT BECMG 0317/0320 BKN012 PROB30 TEMPO 0319/0406 4000 -DZRA BKN007 BECMG 0321/0324 17006KT


Runway Data for EDDG
Data provided by openaviationdata.com

Runway ID Mag Var Hdg Length Elevation Surface ILS Freq ILS Id ILS Slope
7 1 69° 7104 ft 159 ft Asphalt 111.9 IMOE 3
25 1 249° 7104 ft 159 ft Asphalt 110.1 IMOW 3

Munster Osnabruck International -?Airport, Germany
Use only for reference purposes



Not for navigational purposes.